Time;durP1;ratioP1;P1;durP2;ratioP2;P2;SDS_P1;SDS_P2;PMS_P1;PMS_P2;Temp;Humidity;BMP_temperature;BMP_pressure;BME280_temperature;BME280_humidity;BME280_pressure;Samples;Min_cycle;Max_cycle;Signal;HPM_P1;HPM_P2
2022/05/02 00:00:54;;;;;;;;;;;;;;;;;;5055896;28;20466;-79
2022/05/02 00:03:20;;;;;;;;;;;;;;;;;;5061193;28;19916;-79
2022/05/02 00:05:46;;;;;;;;;;;;;;;;;;5056494;28;19973;-79
2022/05/02 00:08:12;;;;;;;;;;;;;;;;;;5042877;28;20295;-78
2022/05/02 00:10:38;;;;;;;;;;;;;;;;;;5054793;28;19917;-79
2022/05/02 00:13:06;;;;;;;;;;;;;;;;;;5026285;28;20491;-79
2022/05/02 00:15:32;;;;;;;;;;;;;;;;;;5023687;28;19916;-79
2022/05/02 00:17:58;;;;;;;;;;;;;;;;;;5022387;28;19917;-79
2022/05/02 00:20:24;;;;;;;;;;;;;;;;;;5024973;28;19943;-79
2022/05/02 00:22:50;;;;;;;;;;;;;;;;;;5037401;28;19917;-79
2022/05/02 00:25:16;;;;;;;;;;;;;;;;;;5039715;28;19948;-79
2022/05/02 00:27:42;;;;;;;;;;;;;;;;;;5040101;28;20044;-78
2022/05/02 00:30:08;;;;;;;;;;;;;;;;;;5041903;28;19912;-78
2022/05/02 00:32:40;;;;;;;;;;;;;;;;;;5040717;28;20487;-79
2022/05/02 00:35:06;;;;;;;;;;;;;;;;;;5020704;28;19924;-78
2022/05/02 00:37:32;;;;;;;;;;;;;;;;;;5027995;28;19913;-80
2022/05/02 00:39:58;;;;;;;;;;;;;;;;;;5025089;28;19917;-78
2022/05/02 00:42:24;;;;;;;;;;;;;;;;;;5043972;28;19913;-79
2022/05/02 00:44:50;;;;;;;;;;;;;;;;;;5026647;28;19917;-78
2022/05/02 00:47:18;;;;;;;;;;;;;;;;;;5038621;28;20027;-79
2022/05/02 00:49:44;;;;;;;;;;;;;;;;;;5039090;28;19970;-78
2022/05/02 00:52:10;;;;;;;;;;;;;;;;;;5021590;28;20159;-80
2022/05/02 00:54:37;;;;;;;;;;;;;;;;;;5028872;28;19913;-79
2022/05/02 00:57:03;;;;;;;;;;;;;;;;;;5024975;28;19916;-79
2022/05/02 00:59:29;;;;;;;;;;;;;;;;;;5035260;28;19925;-79
2022/05/02 01:01:55;;;;;;;;;;;;;;;;;;5024116;28;19920;-78
2022/05/02 01:04:21;;;;;;;;;;;;;;;;;;5027111;28;19924;-78
2022/05/02 01:09:31;;;;;;;;;;;;;;;;;;5041846;28;19966;-79
2022/05/02 01:11:57;;;;;;;;;;;;;;;;;;5025858;28;20295;-79
2022/05/02 01:14:23;;;;;;;;;;;;;;;;;;5027298;28;19929;-79
2022/05/02 01:16:49;;;;;;;;;;;;;;;;;;5016416;28;19917;-79
2022/05/02 01:19:15;;;;;;;;;;;;;;;;;;5015232;28;19922;-78
2022/05/02 01:21:41;;;;;;;;;;;;;;;;;;5014285;28;19924;-80
2022/05/02 01:24:07;;;;;;;;;;;;;;;;;;5013963;28;19937;-79
2022/05/02 01:26:33;;;;;;;;;;;;;;;;;;5025801;28;19921;-78
2022/05/02 01:28:58;;;;;;;;;;;;;;;;;;5012845;28;20361;-79
2022/05/02 01:31:24;;;;;;;;;;;;;;;;;;5023839;28;19913;-79
2022/05/02 01:33:51;;;;;;;;;;;;;;;;;;5025101;28;19928;-80
2022/05/02 01:36:17;;;;;;;;;;;;;;;;;;4997620;28;19914;-80
2022/05/02 01:38:43;;;;;;;;;;;;;;;;;;4992369;28;20012;-79
2022/05/02 01:41:09;;;;;;;;;;;;;;;;;;5008789;28;19918;-79
2022/05/02 01:43:35;;;;;;;;;;;;;;;;;;5015242;28;20059;-79
2022/05/02 01:46:01;;;;;;;;;;;;;;;;;;5010771;28;19922;-80
2022/05/02 01:48:26;;;;;;;;;;;;;;;;;;5024190;28;19921;-79
2022/05/02 01:50:52;;;;;;;;;;;;;;;;;;4995950;28;19924;-79
2022/05/02 01:53:18;;;;;;;;;;;;;;;;;;5014258;28;19915;-80
2022/05/02 01:55:44;;;;;;;;;;;;;;;;;;5012797;28;19917;-80
2022/05/02 01:58:10;;;;;;;;;;;;;;;;;;4997097;28;19925;-80
2022/05/02 02:00:36;;;;;;;;;;;;;;;;;;5014159;28;20004;-80
2022/05/02 02:03:02;;;;;;;;;;;;;;;;;;4992349;28;19913;-80
2022/05/02 02:08:12;;;;;;;;;;;;;;;;;;5010638;28;19921;-79
2022/05/02 02:10:38;;;;;;;;;;;;;;;;;;4996576;28;19913;-80
2022/05/02 02:13:05;;;;;;;;;;;;;;;;;;5001604;28;20019;-80
2022/05/02 02:15:31;;;;;;;;;;;;;;;;;;4991304;28;19929;-79
2022/05/02 02:17:56;;;;;;;;;;;;;;;;;;4995968;28;19917;-79
2022/05/02 02:20:22;;;;;;;;;;;;;;;;;;4997636;28;19921;-80
2022/05/02 02:22:48;;;;;;;;;;;;;;;;;;4994810;28;19985;-80
2022/05/02 02:25:14;;;;;;;;;;;;;;;;;;5013383;28;19925;-80
2022/05/02 02:27:40;;;;;;;;;;;;;;;;;;4996869;28;19917;-79
2022/05/02 02:30:06;;;;;;;;;;;;;;;;;;5015636;28;19913;-80
2022/05/02 02:32:32;;;;;;;;;;;;;;;;;;4992996;28;20448;-79
2022/05/02 02:34:58;;;;;;;;;;;;;;;;;;5003158;28;19917;-79
2022/05/02 02:37:24;;;;;;;;;;;;;;;;;;5015313;28;19925;-79
2022/05/02 02:39:50;;;;;;;;;;;;;;;;;;5020388;28;19943;-79
2022/05/02 02:42:16;;;;;;;;;;;;;;;;;;5000827;28;19952;-80
2022/05/02 02:44:42;;;;;;;;;;;;;;;;;;5001688;28;20565;-79
2022/05/02 02:47:08;;;;;;;;;;;;;;;;;;5001789;28;19913;-80
2022/05/02 02:49:34;;;;;;;;;;;;;;;;;;5000556;28;20800;-80
2022/05/02 02:51:59;;;;;;;;;;;;;;;;;;5018293;28;19955;-79
2022/05/02 02:54:25;;;;;;;;;;;;;;;;;;5012246;28;20012;-80
2022/05/02 02:56:51;;;;;;;;;;;;;;;;;;5020989;28;19921;-80
2022/05/02 02:59:17;;;;;;;;;;;;;;;;;;5017625;28;19917;-80
2022/05/02 03:01:43;;;;;;;;;;;;;;;;;;5020577;28;19917;-80
2022/05/02 03:06:54;;;;;;;;;;;;;;;;;;5020560;28;20024;-80
2022/05/02 03:09:20;;;;;;;;;;;;;;;;;;5019016;28;20374;-80
2022/05/02 03:11:45;;;;;;;;;;;;;;;;;;5002805;28;19921;-80
2022/05/02 03:14:11;;;;;;;;;;;;;;;;;;5020371;28;19921;-79
2022/05/02 03:16:37;;;;;;;;;;;;;;;;;;5037468;28;19913;-80
2022/05/02 03:19:03;;;;;;;;;;;;;;;;;;5041490;28;19920;-79
2022/05/02 03:21:29;;;;;;;;;;;;;;;;;;5058970;28;19967;-81
2022/05/02 03:23:55;;;;;;;;;;;;;;;;;;5038943;28;19920;-80
2022/05/02 03:26:21;;;;;;;;;;;;;;;;;;5049963;28;19959;-79
2022/05/02 03:28:47;;;;;;;;;;;;;;;;;;5059768;28;20434;-80
2022/05/02 03:31:13;;;;;;;;;;;;;;;;;;5059989;28;19931;-78
2022/05/02 03:33:38;;;;;;;;;;;;;;;;;;5061971;28;19928;-80
2022/05/02 03:36:04;;;;;;;;;;;;;;;;;;5045743;28;20248;-79
2022/05/02 03:38:30;;;;;;;;;;;;;;;;;;5052595;28;19950;-79
2022/05/02 03:40:56;;;;;;;;;;;;;;;;;;5042334;28;19912;-81
2022/05/02 03:43:22;;;;;;;;;;;;;;;;;;5057960;28;19948;-80
2022/05/02 03:45:48;;;;;;;;;;;;;;;;;;5057472;28;20315;-80
2022/05/02 03:48:14;;;;;;;;;;;;;;;;;;5049412;28;19924;-79
2022/05/02 03:50:40;;;;;;;;;;;;;;;;;;5057262;28;19928;-80
2022/05/02 03:53:08;;;;;;;;;;;;;;;;;;5063752;28;19981;-79
2022/05/02 03:55:33;;;;;;;;;;;;;;;;;;5042135;28;19917;-79
2022/05/02 03:57:59;;;;;;;;;;;;;;;;;;5045719;28;19992;-80
2022/05/02 04:00:25;;;;;;;;;;;;;;;;;;5055738;28;19917;-80
2022/05/02 04:02:51;;;;;;;;;;;;;;;;;;5045519;28;19920;-79
2022/05/02 04:05:17;;;;;;;;;;;;;;;;;;5051703;28;20008;-79
2022/05/02 04:07:43;;;;;;;;;;;;;;;;;;5057852;28;19952;-79
2022/05/02 04:10:09;;;;;;;;;;;;;;;;;;5046723;28;19917;-80
2022/05/02 04:12:35;;;;;;;;;;;;;;;;;;5058370;28;20739;-80
2022/05/02 04:15:01;;;;;;;;;;;;;;;;;;5039782;28;19943;-80
2022/05/02 04:17:27;;;;;;;;;;;;;;;;;;5035376;28;19917;-80
2022/05/02 04:19:53;;;;;;;;;;;;;;;;;;5040969;28;19938;-80
2022/05/02 04:22:19;;;;;;;;;;;;;;;;;;5034954;28;20015;-79
2022/05/02 04:24:44;;;;;;;;;;;;;;;;;;5038051;28;20287;-80
2022/05/02 04:27:10;;;;;;;;;;;;;;;;;;5040189;28;19917;-80
2022/05/02 04:29:36;;;;;;;;;;;;;;;;;;5039830;28;19960;-79
2022/05/02 04:32:02;;;;;;;;;;;;;;;;;;5043029;28;20367;-80
2022/05/02 04:34:28;;;;;;;;;;;;;;;;;;5039662;28;19912;-79
2022/05/02 04:36:54;;;;;;;;;;;;;;;;;;5036575;28;20288;-80
2022/05/02 04:39:20;;;;;;;;;;;;;;;;;;5032984;28;19917;-79
2022/05/02 04:41:46;;;;;;;;;;;;;;;;;;5040312;28;19917;-80
2022/05/02 04:44:12;;;;;;;;;;;;;;;;;;5040342;28;19917;-79
2022/05/02 04:46:38;;;;;;;;;;;;;;;;;;5036001;28;19921;-79
2022/05/02 04:49:03;;;;;;;;;;;;;;;;;;5039181;28;19924;-81
2022/05/02 04:51:29;;;;;;;;;;;;;;;;;;5038557;28;19921;-79
2022/05/02 04:53:55;;;;;;;;;;;;;;;;;;5034685;28;20367;-80
2022/05/02 04:56:21;;;;;;;;;;;;;;;;;;5036894;28;19955;-79
2022/05/02 04:58:47;;;;;;;;;;;;;;;;;;5035810;28;19944;-79
2022/05/02 05:01:13;;;;;;;;;;;;;;;;;;5037580;28;20418;-80
2022/05/02 05:03:39;;;;;;;;;;;;;;;;;;5039706;28;19969;-79
2022/05/02 05:06:05;;;;;;;;;;;;;;;;;;5034224;28;19923;-79
2022/05/02 05:08:31;;;;;;;;;;;;;;;;;;5035514;28;19978;-78
2022/05/02 05:10:56;;;;;;;;;;;;;;;;;;5038566;28;19913;-78
2022/05/02 05:13:22;;;;;;;;;;;;;;;;;;5035969;28;19920;-80
2022/05/02 05:18:33;;;;;;;;;;;;;;;;;;5013068;28;20003;-79
2022/05/02 05:20:59;;;;;;;;;;;;;;;;;;4997782;28;20361;-79
2022/05/02 05:23:25;;;;;;;;;;;;;;;;;;4997073;28;19940;-80
2022/05/02 05:25:51;;;;;;;;;;;;;;;;;;5014990;28;20111;-79
2022/05/02 05:28:16;;;;;;;;;;;;;;;;;;4998667;28;19963;-79
2022/05/02 05:30:42;;;;;;;;;;;;;;;;;;5015258;28;19914;-79
2022/05/02 05:33:08;;;;;;;;;;;;;;;;;;5017053;28;19914;-80
2022/05/02 05:35:34;;;;;;;;;;;;;;;;;;5017182;28;20364;-80
2022/05/02 05:38:03;;;;;;;;;;;;;;;;;;5015341;28;19921;-79
2022/05/02 05:40:29;;;;;;;;;;;;;;;;;;4999980;28;20364;-79
2022/05/02 05:42:55;;;;;;;;;;;;;;;;;;4997099;28;19914;-79
2022/05/02 05:45:21;;;;;;;;;;;;;;;;;;4999466;28;19932;-80
2022/05/02 05:47:47;;;;;;;;;;;;;;;;;;4998858;28;20392;-79
2022/05/02 05:50:13;;;;;;;;;;;;;;;;;;4998865;28;19965;-80
2022/05/02 05:52:39;;;;;;;;;;;;;;;;;;5015622;28;20351;-79
2022/05/02 05:55:05;;;;;;;;;;;;;;;;;;5000904;28;19930;-79
2022/05/02 05:57:31;;;;;;;;;;;;;;;;;;4995189;28;19948;-79
2022/05/02 06:00:03;;;;;;;;;;;;;;;;;;5017429;28;19920;-79
2022/05/02 06:02:29;;;;;;;;;;;;;;;;;;5015351;28;19920;-79
2022/05/02 06:04:55;;;;;;;;;;;;;;;;;;5013392;28;19922;-80
2022/05/02 06:07:21;;;;;;;;;;;;;;;;;;5018550;28;19916;-79
2022/05/02 06:09:47;;;;;;;;;;;;;;;;;;5012810;28;20334;-80
2022/05/02 06:12:13;;;;;;;;;;;;;;;;;;4997014;28;20640;-80
2022/05/02 06:18:27;;;;;;;;;;;;;;;;;;5006475;28;19936;-79
2022/05/02 06:20:09;;;;;;;;;;;;;;;;;;5049072;28;19958;-80
2022/05/02 06:22:35;;;;;;;;;;;;;;;;;;5035828;28;19924;-79
2022/05/02 06:25:01;;;;;;;;;;;;;;;;;;5051909;28;20382;-80
2022/05/02 06:27:27;;;;;;;;;;;;;;;;;;5048287;28;19917;-80
2022/05/02 06:29:53;;;;;;;;;;;;;;;;;;5054576;28;20070;-80
2022/05/02 06:32:19;;;;;;;;;;;;;;;;;;5052017;28;19935;-79
2022/05/02 06:34:45;;;;;;;;;;;;;;;;;;5052080;28;19928;-79
2022/05/02 06:37:11;;;;;;;;;;;;;;;;;;5038315;28;20856;-79
2022/05/02 06:39:37;;;;;;;;;;;;;;;;;;5056893;28;20003;-80
2022/05/02 06:42:02;;;;;;;;;;;;;;;;;;5052330;28;19921;-79
2022/05/02 06:44:28;;;;;;;;;;;;;;;;;;5056395;28;19935;-80
2022/05/02 06:46:54;;;;;;;;;;;;;;;;;;5054690;28;20021;-80
2022/05/02 06:49:20;;;;;;;;;;;;;;;;;;5037843;28;19916;-80
2022/05/02 06:51:46;;;;;;;;;;;;;;;;;;5037890;28;19927;-80
2022/05/02 06:54:12;;;;;;;;;;;;;;;;;;5042936;28;19919;-79
2022/05/02 06:56:38;;;;;;;;;;;;;;;;;;5053078;28;20231;-80
2022/05/02 06:59:04;;;;;;;;;;;;;;;;;;5055878;28;20323;-80
2022/05/02 07:01:30;;;;;;;;;;;;;;;;;;5050684;28;19913;-80
2022/05/02 07:03:56;;;;;;;;;;;;;;;;;;5059039;28;20081;-80
2022/05/02 07:06:22;;;;;;;;;;;;;;;;;;5040833;28;20467;-79
2022/05/02 07:08:48;;;;;;;;;;;;;;;;;;5058898;28;19917;-80
2022/05/02 07:11:14;;;;;;;;;;;;;;;;;;5049966;28;19909;-79
2022/05/02 07:13:40;;;;;;;;;;;;;;;;;;5052285;28;20001;-79
2022/05/02 07:16:06;;;;;;;;;;;;;;;;;;4999852;28;19931;-80
2022/05/02 07:18:32;;;;;;;;;;;;;;;;;;5014687;28;20384;-80
2022/05/02 07:20:58;;;;;;;;;;;;;;;;;;5012954;28;20023;-79
2022/05/02 07:23:24;;;;;;;;;;;;;;;;;;5004724;28;20288;-80
2022/05/02 07:25:50;;;;;;;;;;;;;;;;;;5017158;28;19922;-79
2022/05/02 07:28:16;;;;;;;;;;;;;;;;;;5025078;28;19989;-80
2022/05/02 07:30:41;;;;;;;;;;;;;;;;;;5012936;28;20001;-79
2022/05/02 07:33:07;;;;;;;;;;;;;;;;;;5030508;28;19917;-80
2022/05/02 07:35:33;;;;;;;;;;;;;;;;;;5011522;28;20345;-80
2022/05/02 07:37:59;;;;;;;;;;;;;;;;;;5000736;28;20059;-79
2022/05/02 07:40:25;;;;;;;;;;;;;;;;;;5019412;28;19981;-79
2022/05/02 07:42:51;;;;;;;;;;;;;;;;;;4998753;28;19959;-80
2022/05/02 07:45:18;;;;;;;;;;;;;;;;;;5026934;28;20308;-80
2022/05/02 07:47:44;;;;;;;;;;;;;;;;;;5018488;28;19996;-80
2022/05/02 07:50:11;;;;;;;;;;;;;;;;;;5016357;28;20547;-80
2022/05/02 07:52:40;;;;;;;;;;;;;;;;;;5020187;28;19917;-79
2022/05/02 07:55:06;;;;;;;;;;;;;;;;;;5015579;28;19924;-80
2022/05/02 07:57:32;;;;;;;;;;;;;;;;;;5021650;28;20117;-79
2022/05/02 07:59:58;;;;;;;;;;;;;;;;;;5018960;28;19924;-80
2022/05/02 08:02:24;;;;;;;;;;;;;;;;;;5011982;28;19940;-80
2022/05/02 08:04:52;;;;;;;;;;;;;;;;;;4999049;28;20373;-80
2022/05/02 08:07:18;;;;;;;;;;;;;;;;;;5017709;28;19930;-80
2022/05/02 08:09:44;;;;;;;;;;;;;;;;;;4999920;28;20121;-80
2022/05/02 08:12:10;;;;;;;;;;;;;;;;;;5014541;28;20384;-80
2022/05/02 08:14:36;;;;;;;;;;;;;;;;;;5018123;28;19920;-79
2022/05/02 08:17:02;;;;;;;;;;;;;;;;;;5041800;28;20294;-80
2022/05/02 08:19:28;;;;;;;;;;;;;;;;;;5017861;28;20003;-79
2022/05/02 08:21:53;;;;;;;;;;;;;;;;;;5039396;28;19988;-80
2022/05/02 08:27:16;;;;;;;;;;;;;;;;;;5039516;28;20025;-80
2022/05/02 08:29:42;;;;;;;;;;;;;;;;;;5020355;28;19913;-80
2022/05/02 08:32:11;;;;;;;;;;;;;;;;;;5023655;28;20395;-80
2022/05/02 08:34:37;;;;;;;;;;;;;;;;;;5019410;28;19920;-80
2022/05/02 08:37:03;;;;;;;;;;;;;;;;;;5038541;28;20672;-80
2022/05/02 08:39:29;;;;;;;;;;;;;;;;;;5039912;28;20295;-80
2022/05/02 08:41:55;;;;;;;;;;;;;;;;;;5023587;28;19920;-80
2022/05/02 08:44:21;;;;;;;;;;;;;;;;;;5030618;28;20371;-79
2022/05/02 08:46:46;;;;;;;;;;;;;;;;;;5017112;28;19921;-80
2022/05/02 08:51:58;;;;;;;;;;;;;;;;;;5039534;28;19920;-80
2022/05/02 08:54:24;;;;;;;;;;;;;;;;;;5025200;28;19917;-79
2022/05/02 08:56:50;;;;;;;;;;;;;;;;;;5034559;28;19924;-80
2022/05/02 08:59:16;;;;;;;;;;;;;;;;;;5043387;28;19921;-80
2022/05/02 09:01:42;;;;;;;;;;;;;;;;;;5022407;28;19939;-80
2022/05/02 09:04:08;;;;;;;;;;;;;;;;;;5020878;28;19925;-80
2022/05/02 09:06:33;;;;;;;;;;;;;;;;;;5038956;28;20346;-80
2022/05/02 09:08:59;;;;;;;;;;;;;;;;;;5047427;28;19912;-80
2022/05/02 09:11:31;;;;;;;;;;;;;;;;;;5021910;28;19936;-80
2022/05/02 09:13:57;;;;;;;;;;;;;;;;;;5018036;28;19913;-80
2022/05/02 09:16:23;;;;;;;;;;;;;;;;;;5018990;28;19928;-81
2022/05/02 09:18:49;;;;;;;;;;;;;;;;;;5014973;28;19913;-80
2022/05/02 09:21:15;;;;;;;;;;;;;;;;;;5004056;28;19913;-80
2022/05/02 09:23:41;;;;;;;;;;;;;;;;;;5008284;28;19968;-80
2022/05/02 09:26:08;;;;;;;;;;;;;;;;;;5019990;28;20262;-80
2022/05/02 09:28:34;;;;;;;;;;;;;;;;;;5027990;28;20323;-80
2022/05/02 09:31:00;;;;;;;;;;;;;;;;;;5004782;28;19917;-80
2022/05/02 09:33:26;;;;;;;;;;;;;;;;;;5021169;28;19920;-80
2022/05/02 09:35:52;;;;;;;;;;;;;;;;;;5004524;28;19929;-80
2022/05/02 09:38:18;;;;;;;;;;;;;;;;;;5000827;28;20172;-80
2022/05/02 09:40:44;;;;;;;;;;;;;;;;;;5016320;28;20407;-80
2022/05/02 09:43:10;;;;;;;;;;;;;;;;;;5015866;28;19913;-80
2022/05/02 09:51:06;;;;;;;;;;;;;;;;;;5019785;28;20292;-80
2022/05/02 09:53:32;;;;;;;;;;;;;;;;;;5015689;28;19914;-80
2022/05/02 09:58:43;;;;;;;;;;;;;;;;;;5016432;28;20360;-80
2022/05/02 10:01:11;;;;;;;;;;;;;;;;;;5004420;28;19913;-80
2022/05/02 10:03:37;;;;;;;;;;;;;;;;;;5003006;28;19940;-80
2022/05/02 10:06:04;;;;;;;;;;;;;;;;;;5014424;28;19921;-80
2022/05/02 10:08:30;;;;;;;;;;;;;;;;;;5022645;28;19913;-80
2022/05/02 10:10:56;;;;;;;;;;;;;;;;;;5021614;28;19971;-80
2022/05/02 10:13:22;;;;;;;;;;;;;;;;;;5015104;28;19979;-80
2022/05/02 10:15:48;;;;;;;;;;;;;;;;;;5035030;28;20011;-80
2022/05/02 10:18:14;;;;;;;;;;;;;;;;;;5036865;28;20007;-80
2022/05/02 10:20:40;;;;;;;;;;;;;;;;;;5036096;28;19917;-80
2022/05/02 10:23:06;;;;;;;;;;;;;;;;;;5041449;28;19918;-80
2022/05/02 10:25:32;;;;;;;;;;;;;;;;;;5040555;28;20374;-80
2022/05/02 10:27:58;;;;;;;;;;;;;;;;;;5038866;28;19920;-80
2022/05/02 10:30:24;;;;;;;;;;;;;;;;;;5027599;28;20291;-80
2022/05/02 10:32:50;;;;;;;;;;;;;;;;;;5018022;28;20368;-80
2022/05/02 10:35:16;;;;;;;;;;;;;;;;;;5035475;28;20463;-79
2022/05/02 10:37:42;;;;;;;;;;;;;;;;;;5015938;28;19917;-79
2022/05/02 10:40:08;;;;;;;;;;;;;;;;;;5031167;28;20353;-79
2022/05/02 10:42:34;;;;;;;;;;;;;;;;;;5012374;28;19916;-79
2022/05/02 10:45:03;;;;;;;;;;;;;;;;;;5018368;28;19940;-79
2022/05/02 10:47:29;;;;;;;;;;;;;;;;;;5027520;28;19913;-79
2022/05/02 10:49:55;;;;;;;;;;;;;;;;;;5039361;28;19920;-78
2022/05/02 10:52:21;;;;;;;;;;;;;;;;;;5017031;28;21260;-79
2022/05/02 10:54:46;;;;;;;;;;;;;;;;;;5038183;28;20000;-78
2022/05/02 10:57:12;;;;;;;;;;;;;;;;;;5035916;28;19955;-78
2022/05/02 10:59:38;;;;;;;;;;;;;;;;;;5038416;28;19994;-77
2022/05/02 11:02:04;;;;;;;;;;;;;;;;;;5040099;28;19979;-77
2022/05/02 11:04:30;;;;;;;;;;;;;;;;;;5017956;28;19956;-78
2022/05/02 11:07:00;;;;;;;;;;;;;;;;;;5038295;28;19956;-79
2022/05/02 11:09:25;;;;;;;;;;;;;;;;;;5019767;28;19913;-79
2022/05/02 11:11:52;;;;;;;;;;;;;;;;;;5038938;28;19921;-79
2022/05/02 11:14:17;;;;;;;;;;;;;;;;;;5036677;28;20096;-79
2022/05/02 11:16:43;;;;;;;;;;;;;;;;;;5047479;28;19973;-78
2022/05/02 11:21:55;;;;;;;;;;;;;;;;;;5059537;28;19975;-78
2022/05/02 11:24:21;;;;;;;;;;;;;;;;;;5039119;28;19913;-78
2022/05/02 11:26:47;;;;;;;;;;;;;;;;;;5057427;28;22444;-79
2022/05/02 11:29:13;;;;;;;;;;;;;;;;;;5037320;28;19916;-80
2022/05/02 11:31:39;;;;;;;;;;;;;;;;;;5036751;28;19916;-79
2022/05/02 11:34:05;;;;;;;;;;;;;;;;;;5059250;28;19947;-79
2022/05/02 11:36:31;;;;;;;;;;;;;;;;;;5040080;28;20385;-81
2022/05/02 11:38:56;;;;;;;;;;;;;;;;;;5033074;28;20039;-79
2022/05/02 11:41:22;;;;;;;;;;;;;;;;;;5059013;28;19924;-79
2022/05/02 11:43:48;;;;;;;;;;;;;;;;;;5039838;28;19916;-79
2022/05/02 11:46:15;;;;;;;;;;;;;;;;;;5038917;28;19924;-79
2022/05/02 11:48:48;;;;;;;;;;;;;;;;;;5037464;28;19970;-79
2022/05/02 11:51:14;;;;;;;;;;;;;;;;;;5050887;28;19920;-79
2022/05/02 11:53:39;;;;;;;;;;;;;;;;;;5042908;28;19916;-79
2022/05/02 11:56:06;;;;;;;;;;;;;;;;;;5050338;28;19966;-79
2022/05/02 11:58:34;;;;;;;;;;;;;;;;;;5056676;28;19920;-79
2022/05/02 12:01:00;;;;;;;;;;;;;;;;;;5050227;28;20335;-79
2022/05/02 12:03:26;;;;;;;;;;;;;;;;;;5042014;28;19947;-80
2022/05/02 12:05:52;;;;;;;;;;;;;;;;;;5043165;28;19963;-80
2022/05/02 12:08:18;;;;;;;;;;;;;;;;;;5040031;28;20355;-80
2022/05/02 12:10:47;;;;;;;;;;;;;;;;;;5039407;28;20122;-80
2022/05/02 12:13:12;;;;;;;;;;;;;;;;;;5042173;28;19927;-79
2022/05/02 12:15:38;;;;;;;;;;;;;;;;;;5051688;28;19917;-80
2022/05/02 12:18:06;;;;;;;;;;;;;;;;;;5064125;28;19912;-79
2022/05/02 12:20:31;;;;;;;;;;;;;;;;;;5052634;28;19916;-79
2022/05/02 12:22:57;;;;;;;;;;;;;;;;;;5050244;28;19920;-80
2022/05/02 12:25:23;;;;;;;;;;;;;;;;;;5042587;28;19925;-79
2022/05/02 12:27:50;;;;;;;;;;;;;;;;;;5062420;28;19923;-78
2022/05/02 12:30:16;;;;;;;;;;;;;;;;;;5036490;28;20288;-79
2022/05/02 12:32:42;;;;;;;;;;;;;;;;;;5059517;28;19962;-80
2022/05/02 12:35:08;;;;;;;;;;;;;;;;;;5044749;28;19985;-80
2022/05/02 12:37:34;;;;;;;;;;;;;;;;;;5041190;28;20348;-79
2022/05/02 12:40:00;;;;;;;;;;;;;;;;;;5054015;28;19999;-79
2022/05/02 12:42:26;;;;;;;;;;;;;;;;;;5045745;28;20380;-80
2022/05/02 12:44:52;;;;;;;;;;;;;;;;;;5047287;28;19967;-79
2022/05/02 12:47:18;;;;;;;;;;;;;;;;;;5060474;28;19931;-78
2022/05/02 12:49:44;;;;;;;;;;;;;;;;;;5060490;28;19916;-79
2022/05/02 12:52:10;;;;;;;;;;;;;;;;;;5044619;28;20051;-81
2022/05/02 12:54:36;;;;;;;;;;;;;;;;;;5055764;28;19916;-80
2022/05/02 13:02:32;;;;;;;;;;;;;;;;;;5057562;28;19955;-79
2022/05/02 13:04:58;;;;;;;;;;;;;;;;;;5036855;28;19920;-79
2022/05/02 13:07:25;;;;;;;;;;;;;;;;;;5059605;28;20287;-80
2022/05/02 13:09:51;;;;;;;;;;;;;;;;;;5040073;28;19917;-79
2022/05/02 13:12:17;;;;;;;;;;;;;;;;;;5049080;28;19973;-80
2022/05/02 13:14:43;;;;;;;;;;;;;;;;;;5040538;28;20439;-79
2022/05/02 13:17:09;;;;;;;;;;;;;;;;;;5055740;28;19919;-79
2022/05/02 13:19:37;;;;;;;;;;;;;;;;;;5040077;28;19989;-79
2022/05/02 13:22:04;;;;;;;;;;;;;;;;;;5051328;28;19913;-79
2022/05/02 13:24:30;;;;;;;;;;;;;;;;;;5056903;28;19920;-79
2022/05/02 13:26:56;;;;;;;;;;;;;;;;;;5056489;28;19945;-80
2022/05/02 13:29:22;;;;;;;;;;;;;;;;;;5058419;28;19942;-79
2022/05/02 13:31:48;;;;;;;;;;;;;;;;;;5038443;28;19919;-80
2022/05/02 13:34:14;;;;;;;;;;;;;;;;;;5040053;28;20073;-79
2022/05/02 13:36:40;;;;;;;;;;;;;;;;;;5035324;28;19924;-80
2022/05/02 13:39:06;;;;;;;;;;;;;;;;;;5056508;28;20057;-80
2022/05/02 13:41:33;;;;;;;;;;;;;;;;;;5038073;28;20003;-80
2022/05/02 13:44:03;;;;;;;;;;;;;;;;;;5054839;28;19954;-80
2022/05/02 13:46:29;;;;;;;;;;;;;;;;;;5053941;28;20034;-79
2022/05/02 13:48:55;;;;;;;;;;;;;;;;;;5039375;28;20387;-81
2022/05/02 13:51:25;;;;;;;;;;;;;;;;;;5054857;28;19912;-80
2022/05/02 13:53:51;;;;;;;;;;;;;;;;;;5040455;28;20038;-80
2022/05/02 13:56:17;;;;;;;;;;;;;;;;;;5043646;28;20046;-81
2022/05/02 13:58:42;;;;;;;;;;;;;;;;;;5046365;28;19917;-80
2022/05/02 14:06:38;;;;;;;;;;;;;;;;;;5055232;28;19924;-81
2022/05/02 14:09:04;;;;;;;;;;;;;;;;;;5055636;28;19962;-81
2022/05/02 14:11:30;;;;;;;;;;;;;;;;;;5043046;28;19913;-80
2022/05/02 14:13:56;;;;;;;;;;;;;;;;;;5042943;28;19962;-80
2022/05/02 14:16:22;;;;;;;;;;;;;;;;;;5034793;28;19921;-81
2022/05/02 14:18:48;;;;;;;;;;;;;;;;;;5038522;28;20064;-80
2022/05/02 14:21:14;;;;;;;;;;;;;;;;;;5024122;28;19921;-80
2022/05/02 14:23:40;;;;;;;;;;;;;;;;;;5020396;28;19920;-80
2022/05/02 14:26:06;;;;;;;;;;;;;;;;;;5018078;28;20343;-80
2022/05/02 14:28:32;;;;;;;;;;;;;;;;;;5020808;28;19989;-80
2022/05/02 14:30:57;;;;;;;;;;;;;;;;;;5021754;28;19909;-80
2022/05/02 14:33:24;;;;;;;;;;;;;;;;;;5030669;28;19916;-80
2022/05/02 14:35:51;;;;;;;;;;;;;;;;;;5042335;28;20754;-80
2022/05/02 14:38:18;;;;;;;;;;;;;;;;;;5043396;28;20104;-80
2022/05/02 14:40:44;;;;;;;;;;;;;;;;;;5019968;28;19913;-80
2022/05/02 14:43:10;;;;;;;;;;;;;;;;;;5033037;28;19920;-81
2022/05/02 14:45:36;;;;;;;;;;;;;;;;;;5039537;28;19916;-80
2022/05/02 14:48:02;;;;;;;;;;;;;;;;;;5023530;28;19916;-81
2022/05/02 14:50:28;;;;;;;;;;;;;;;;;;5035558;28;19917;-81
2022/05/02 14:52:54;;;;;;;;;;;;;;;;;;5026302;28;19971;-80
2022/05/02 14:55:20;;;;;;;;;;;;;;;;;;5023000;28;20012;-80
2022/05/02 14:57:46;;;;;;;;;;;;;;;;;;5025855;28;20025;-80
2022/05/02 15:00:12;;;;;;;;;;;;;;;;;;5022016;28;20393;-80
2022/05/02 15:02:38;;;;;;;;;;;;;;;;;;5023426;28;20073;-81
2022/05/02 15:05:04;;;;;;;;;;;;;;;;;;5034704;28;19998;-80
2022/05/02 15:07:30;;;;;;;;;;;;;;;;;;5031755;28;19917;-80
2022/05/02 15:10:15;;;;;;;;;;;;;;;;;;5035207;28;19916;-80
2022/05/02 15:12:41;;;;;;;;;;;;;;;;;;5022816;28;19917;-81
2022/05/02 15:15:07;;;;;;;;;;;;;;;;;;5026280;28;20376;-80
2022/05/02 15:17:34;;;;;;;;;;;;;;;;;;5007261;28;19975;-80
2022/05/02 15:20:00;;;;;;;;;;;;;;;;;;5016839;28;19917;-80
2022/05/02 15:22:29;;;;;;;;;;;;;;;;;;5020432;28;20642;-81
2022/05/02 15:25:04;;;;;;;;;;;;;;;;;;4998312;28;19913;-81
2022/05/02 15:38:29;;;;;;;;;;;;;;;;;;5018633;28;19928;-80
2022/05/02 15:40:55;;;;;;;;;;;;;;;;;;4998690;28;20281;-81
2022/05/02 15:43:21;;;;;;;;;;;;;;;;;;5017641;28;19928;-83
2022/05/02 15:45:47;;;;;;;;;;;;;;;;;;5005012;28;19944;-80
2022/05/02 15:48:13;;;;;;;;;;;;;;;;;;5002924;28;19917;-80
2022/05/02 15:50:39;;;;;;;;;;;;;;;;;;5014629;28;20255;-81
2022/05/02 15:53:05;;;;;;;;;;;;;;;;;;5018856;28;19915;-80
2022/05/02 15:55:31;;;;;;;;;;;;;;;;;;4998583;28;20018;-80
2022/05/02 15:57:57;;;;;;;;;;;;;;;;;;5006000;28;19960;-81
2022/05/02 16:00:23;;;;;;;;;;;;;;;;;;5020130;28;19917;-80
2022/05/02 16:02:49;;;;;;;;;;;;;;;;;;5022749;28;20375;-80
2022/05/02 16:05:15;;;;;;;;;;;;;;;;;;5006809;28;20043;-80
2022/05/02 16:10:32;;;;;;;;;;;;;;;;;;5018112;28;19932;-80
2022/05/02 16:12:58;;;;;;;;;;;;;;;;;;5020547;28;19921;-81
2022/05/02 16:15:27;;;;;;;;;;;;;;;;;;5004122;28;20138;-81
2022/05/02 16:17:52;;;;;;;;;;;;;;;;;;5001058;28;21154;-81
2022/05/02 16:20:18;;;;;;;;;;;;;;;;;;5020129;28;20372;-81
2022/05/02 16:22:44;;;;;;;;;;;;;;;;;;5014336;28;20456;-82
2022/05/02 16:25:13;;;;;;;;;;;;;;;;;;5013432;28;20270;-81
2022/05/02 16:27:40;;;;;;;;;;;;;;;;;;5013834;28;19929;-81
2022/05/02 16:30:06;;;;;;;;;;;;;;;;;;5015202;28;20048;-81
2022/05/02 16:32:32;;;;;;;;;;;;;;;;;;5015344;28;20700;-81
2022/05/02 16:34:59;;;;;;;;;;;;;;;;;;4995300;28;19922;-81
2022/05/02 16:37:25;;;;;;;;;;;;;;;;;;5015116;28;19913;-81
2022/05/02 16:39:51;;;;;;;;;;;;;;;;;;5014900;28;19917;-80
2022/05/02 16:42:17;;;;;;;;;;;;;;;;;;5017592;28;20012;-80
2022/05/02 16:44:43;;;;;;;;;;;;;;;;;;5016729;28;19921;-81
2022/05/02 16:47:09;;;;;;;;;;;;;;;;;;5009819;28;20072;-80
2022/05/02 16:49:35;;;;;;;;;;;;;;;;;;5010694;28;19985;-80
2022/05/02 16:52:01;;;;;;;;;;;;;;;;;;5013406;28;19913;-80
2022/05/02 16:54:27;;;;;;;;;;;;;;;;;;5002127;28;19992;-81
2022/05/02 16:56:53;;;;;;;;;;;;;;;;;;5001369;28;19996;-81
2022/05/02 16:59:20;;;;;;;;;;;;;;;;;;5019405;28;20439;-80
2022/05/02 17:01:46;;;;;;;;;;;;;;;;;;5015513;28;19924;-80
2022/05/02 17:04:18;;;;;;;;;;;;;;;;;;5012185;28;19921;-81
2022/05/02 17:06:46;;;;;;;;;;;;;;;;;;5001110;28;19968;-79
2022/05/02 17:09:12;;;;;;;;;;;;;;;;;;5013621;28;20458;-79
2022/05/02 17:11:39;;;;;;;;;;;;;;;;;;4996157;28;19988;-80
2022/05/02 17:14:06;;;;;;;;;;;;;;;;;;4992130;28;19917;-80
2022/05/02 17:16:35;;;;;;;;;;;;;;;;;;5024691;28;20019;-80
2022/05/02 17:19:01;;;;;;;;;;;;;;;;;;5023804;28;20355;-79
2022/05/02 17:21:27;;;;;;;;;;;;;;;;;;5037601;28;19916;-79
2022/05/02 17:23:53;;;;;;;;;;;;;;;;;;5034470;28;19928;-80
2022/05/02 17:26:19;;;;;;;;;;;;;;;;;;5015839;28;20811;-80
2022/05/02 17:28:45;;;;;;;;;;;;;;;;;;5035463;28;19967;-80
2022/05/02 17:31:17;;;;;;;;;;;;;;;;;;5039582;28;20004;-80
2022/05/02 17:33:43;;;;;;;;;;;;;;;;;;5034823;28;19928;-80